Anson, Texas
Current Conditions -  °F | °C
As of 9:58 AM on Friday 19 Dec 2014 (Local Time) from KDYS Reporting Station
Overcast Overcast  
Wind Chill: 44°   Ceiling: 800
Heat Index: 44°   Visibility: 10mi
Dew Point: 39°   Wind: 2mph
Humidity: 84%   Direction: 110°ESE
Pressure: 30.2"   Gusts: NA
Location:  32.76°N, 99.9°W
Report Text: KDYS 191558Z 11002KT 10SM OVC008 06/04 A3020 RMK AO2A SLP227 T00640038 $
Loading
Personal Weather Stations






























Interactive Weather Map New forecast layout! Learn more

10-Day Weather Forecast

Advertisements
Track Severe Weather on mobile